sensor_id;sensor_type;location;lat;lon;timestamp;temperature;humidity
44166;DHT22;30476;53.468;9.826;2024-03-23T00:56:14;9.10;99.90
44166;DHT22;30476;53.468;9.826;2024-03-23T00:58:39;9.10;99.90
44166;DHT22;30476;53.468;9.826;2024-03-23T01:01:05;9.10;99.90
44166;DHT22;30476;53.468;9.826;2024-03-23T01:03:30;9.10;99.90
44166;DHT22;30476;53.468;9.826;2024-03-23T01:06:03;9.10;99.90
44166;DHT22;30476;53.468;9.826;2024-03-23T01:08:29;9.00;99.90
44166;DHT22;30476;53.468;9.826;2024-03-23T01:10:59;9.00;99.90
44166;DHT22;30476;53.468;9.826;2024-03-23T01:13:26;9.00;99.90
44166;DHT22;30476;53.468;9.826;2024-03-23T01:15:53;9.00;99.90
44166;DHT22;30476;53.468;9.826;2024-03-23T01:18:20;9.00;99.90
44166;DHT22;30476;53.468;9.826;2024-03-23T01:20:45;9.00;99.90
44166;DHT22;30476;53.468;9.826;2024-03-23T01:23:12;8.90;99.90
44166;DHT22;30476;53.468;9.826;2024-03-23T01:25:38;8.90;99.90
44166;DHT22;30476;53.468;9.826;2024-03-23T01:28:04;8.90;99.90
44166;DHT22;30476;53.468;9.826;2024-03-23T01:30:32;8.90;99.90
44166;DHT22;30476;53.468;9.826;2024-03-23T01:32:58;8.90;99.90
44166;DHT22;30476;53.468;9.826;2024-03-23T01:35:24;8.90;99.90
44166;DHT22;30476;53.468;9.826;2024-03-23T01:37:49;8.90;99.90
44166;DHT22;30476;53.468;9.826;2024-03-23T01:40:19;8.90;99.90
44166;DHT22;30476;53.468;9.826;2024-03-23T01:43:05;8.90;99.90
44166;DHT22;30476;53.468;9.826;2024-03-23T01:45:34;8.80;99.90
44166;DHT22;30476;53.468;9.826;2024-03-23T01:48:00;8.80;99.90
44166;DHT22;30476;53.468;9.826;2024-03-23T01:50:26;8.80;99.90
44166;DHT22;30476;53.468;9.826;2024-03-23T01:52:53;8.70;99.90
44166;DHT22;30476;53.468;9.826;2024-03-23T01:55:19;8.80;99.90
44166;DHT22;30476;53.468;9.826;2024-03-23T01:57:45;8.80;99.90
44166;DHT22;30476;53.468;9.826;2024-03-23T02:00:12;8.70;99.90
44166;DHT22;30476;53.468;9.826;2024-03-23T02:02:43;8.80;99.90
44166;DHT22;30476;53.468;9.826;2024-03-23T02:05:09;8.70;99.90
44166;DHT22;30476;53.468;9.826;2024-03-23T02:07:34;8.70;99.90
44166;DHT22;30476;53.468;9.826;2024-03-23T02:10:01;8.70;99.90
44166;DHT22;30476;53.468;9.826;2024-03-23T02:12:27;8.60;99.90
44166;DHT22;30476;53.468;9.826;2024-03-23T02:14:53;8.60;99.90
44166;DHT22;30476;53.468;9.826;2024-03-23T02:17:18;8.60;99.90
44166;DHT22;30476;53.468;9.826;2024-03-23T02:19:44;8.50;99.90
44166;DHT22;30476;53.468;9.826;2024-03-23T02:22:12;8.50;99.90
44166;DHT22;30476;53.468;9.826;2024-03-23T02:24:38;8.50;99.90
44166;DHT22;30476;53.468;9.826;2024-03-23T02:27:04;8.50;99.90
44166;DHT22;30476;53.468;9.826;2024-03-23T02:29:29;8.50;99.90
44166;DHT22;30476;53.468;9.826;2024-03-23T02:31:55;8.50;99.90
44166;DHT22;30476;53.468;9.826;2024-03-23T02:34:21;8.50;99.90
44166;DHT22;30476;53.468;9.826;2024-03-23T02:36:47;8.50;99.90
44166;DHT22;30476;53.468;9.826;2024-03-23T02:39:12;8.40;99.90
44166;DHT22;30476;53.468;9.826;2024-03-23T02:41:38;8.50;99.90
44166;DHT22;30476;53.468;9.826;2024-03-23T02:44:04;8.40;99.90
44166;DHT22;30476;53.468;9.826;2024-03-23T02:46:30;8.40;99.90
44166;DHT22;30476;53.468;9.826;2024-03-23T02:48:55;8.40;99.90
44166;DHT22;30476;53.468;9.826;2024-03-23T02:51:22;8.40;99.90
44166;DHT22;30476;53.468;9.826;2024-03-23T02:53:48;8.40;99.90
44166;DHT22;30476;53.468;9.826;2024-03-23T02:56:13;8.30;99.90
44166;DHT22;30476;53.468;9.826;2024-03-23T02:58:44;8.30;99.90
44166;DHT22;30476;53.468;9.826;2024-03-23T03:01:10;8.30;99.90
44166;DHT22;30476;53.468;9.826;2024-03-23T03:03:36;8.30;99.90
44166;DHT22;30476;53.468;9.826;2024-03-23T03:06:02;8.30;99.90
44166;DHT22;30476;53.468;9.826;2024-03-23T03:08:28;8.30;99.90
44166;DHT22;30476;53.468;9.826;2024-03-23T03:10:54;8.20;99.90
44166;DHT22;30476;53.468;9.826;2024-03-23T03:13:19;8.30;99.90
44166;DHT22;30476;53.468;9.826;2024-03-23T03:15:45;8.30;99.90
44166;DHT22;30476;53.468;9.826;2024-03-23T03:18:11;8.30;99.90
44166;DHT22;30476;53.468;9.826;2024-03-23T03:20:40;8.30;99.90
44166;DHT22;30476;53.468;9.826;2024-03-23T03:23:06;8.30;99.90
44166;DHT22;30476;53.468;9.826;2024-03-23T03:25:32;8.30;99.90
44166;DHT22;30476;53.468;9.826;2024-03-23T03:27:58;8.30;99.90
44166;DHT22;30476;53.468;9.826;2024-03-23T03:30:23;8.30;99.90
44166;DHT22;30476;53.468;9.826;2024-03-23T03:32:51;8.20;99.90
44166;DHT22;30476;53.468;9.826;2024-03-23T03:35:17;8.30;99.90
44166;DHT22;30476;53.468;9.826;2024-03-23T03:37:42;8.20;99.90
44166;DHT22;30476;53.468;9.826;2024-03-23T03:40:08;8.20;99.90
44166;DHT22;30476;53.468;9.826;2024-03-23T03:42:35;8.20;99.90
44166;DHT22;30476;53.468;9.826;2024-03-23T03:45:01;8.20;99.90
44166;DHT22;30476;53.468;9.826;2024-03-23T03:47:26;8.20;99.90
44166;DHT22;30476;53.468;9.826;2024-03-23T03:49:52;8.20;99.90
44166;DHT22;30476;53.468;9.826;2024-03-23T03:52:18;8.20;99.90
44166;DHT22;30476;53.468;9.826;2024-03-23T03:54:43;8.20;99.90
44166;DHT22;30476;53.468;9.826;2024-03-23T03:57:09;8.20;99.90
44166;DHT22;30476;53.468;9.826;2024-03-23T03:59:35;8.20;99.90
44166;DHT22;30476;53.468;9.826;2024-03-23T04:02:01;8.10;99.90
44166;DHT22;30476;53.468;9.826;2024-03-23T04:04:26;8.10;99.90
44166;DHT22;30476;53.468;9.826;2024-03-23T04:07:01;8.10;99.90
44166;DHT22;30476;53.468;9.826;2024-03-23T04:09:27;8.10;99.90
44166;DHT22;30476;53.468;9.826;2024-03-23T04:11:53;8.10;99.90
44166;DHT22;30476;53.468;9.826;2024-03-23T04:14:19;8.10;99.90
44166;DHT22;30476;53.468;9.826;2024-03-23T04:16:45;8.10;99.90
44166;DHT22;30476;53.468;9.826;2024-03-23T04:19:11;8.00;99.90
44166;DHT22;30476;53.468;9.826;2024-03-23T04:21:37;8.00;99.90
44166;DHT22;30476;53.468;9.826;2024-03-23T04:24:04;8.00;99.90
44166;DHT22;30476;53.468;9.826;2024-03-23T04:26:29;8.00;99.90
44166;DHT22;30476;53.468;9.826;2024-03-23T04:28:55;8.00;99.90
44166;DHT22;30476;53.468;9.826;2024-03-23T04:31:21;8.00;99.90
44166;DHT22;30476;53.468;9.826;2024-03-23T04:33:47;8.00;99.90
44166;DHT22;30476;53.468;9.826;2024-03-23T04:36:13;7.90;99.90
44166;DHT22;30476;53.468;9.826;2024-03-23T04:38:39;7.90;99.90
44166;DHT22;30476;53.468;9.826;2024-03-23T04:41:05;7.90;99.90
44166;DHT22;30476;53.468;9.826;2024-03-23T04:43:30;7.90;99.90
44166;DHT22;30476;53.468;9.826;2024-03-23T04:45:56;7.90;99.90
44166;DHT22;30476;53.468;9.826;2024-03-23T04:48:23;7.90;99.90
44166;DHT22;30476;53.468;9.826;2024-03-23T04:50:49;7.80;99.90
44166;DHT22;30476;53.468;9.826;2024-03-23T04:53:15;7.90;99.90
44166;DHT22;30476;53.468;9.826;2024-03-23T04:55:42;7.90;99.90
44166;DHT22;30476;53.468;9.826;2024-03-23T04:58:08;7.90;99.90
44166;DHT22;30476;53.468;9.826;2024-03-23T05:00:34;7.90;99.90
44166;DHT22;30476;53.468;9.826;2024-03-23T05:03:00;7.90;99.90
44166;DHT22;30476;53.468;9.826;2024-03-23T05:05:26;7.90;99.90
44166;DHT22;30476;53.468;9.826;2024-03-23T05:07:51;7.90;99.90
44166;DHT22;30476;53.468;9.826;2024-03-23T05:10:17;7.90;99.90
44166;DHT22;30476;53.468;9.826;2024-03-23T05:12:43;7.80;99.90
44166;DHT22;30476;53.468;9.826;2024-03-23T05:15:10;7.80;99.90
44166;DHT22;30476;53.468;9.826;2024-03-23T05:17:36;7.80;99.90
44166;DHT22;30476;53.468;9.826;2024-03-23T05:20:03;7.80;99.90
44166;DHT22;30476;53.468;9.826;2024-03-23T05:22:29;7.80;99.90
44166;DHT22;30476;53.468;9.826;2024-03-23T05:24:56;7.80;99.90
44166;DHT22;30476;53.468;9.826;2024-03-23T05:27:22;7.80;99.90
44166;DHT22;30476;53.468;9.826;2024-03-23T05:29:48;7.80;99.90
44166;DHT22;30476;53.468;9.826;2024-03-23T05:32:14;7.80;99.90
44166;DHT22;30476;53.468;9.826;2024-03-23T05:34:40;7.80;99.90
44166;DHT22;30476;53.468;9.826;2024-03-23T05:37:05;7.80;99.90
44166;DHT22;30476;53.468;9.826;2024-03-23T05:39:31;7.70;99.90
44166;DHT22;30476;53.468;9.826;2024-03-23T05:41:57;7.70;99.90
44166;DHT22;30476;53.468;9.826;2024-03-23T05:44:23;7.80;99.90
44166;DHT22;30476;53.468;9.826;2024-03-23T05:46:49;7.80;99.90
44166;DHT22;30476;53.468;9.826;2024-03-23T05:49:16;7.70;99.90
44166;DHT22;30476;53.468;9.826;2024-03-23T05:51:44;7.80;99.90
44166;DHT22;30476;53.468;9.826;2024-03-23T05:54:09;7.70;99.90
44166;DHT22;30476;53.468;9.826;2024-03-23T05:56:35;7.80;99.90
44166;DHT22;30476;53.468;9.826;2024-03-23T05:59:04;7.80;99.90
44166;DHT22;30476;53.468;9.826;2024-03-23T06:01:30;7.80;99.90
44166;DHT22;30476;53.468;9.826;2024-03-23T06:03:58;7.70;99.90
44166;DHT22;30476;53.468;9.826;2024-03-23T06:06:24;7.70;99.90
44166;DHT22;30476;53.468;9.826;2024-03-23T06:08:49;7.70;99.90
44166;DHT22;30476;53.468;9.826;2024-03-23T06:11:15;7.70;99.90
44166;DHT22;30476;53.468;9.826;2024-03-23T06:13:41;7.70;99.90
44166;DHT22;30476;53.468;9.826;2024-03-23T06:16:06;7.70;99.90
44166;DHT22;30476;53.468;9.826;2024-03-23T06:18:32;7.70;99.90
44166;DHT22;30476;53.468;9.826;2024-03-23T06:20:58;7.80;99.90
44166;DHT22;30476;53.468;9.826;2024-03-23T06:23:24;7.80;99.90
44166;DHT22;30476;53.468;9.826;2024-03-23T06:25:50;7.80;99.90
44166;DHT22;30476;53.468;9.826;2024-03-23T06:28:15;7.80;99.90
44166;DHT22;30476;53.468;9.826;2024-03-23T06:30:41;7.70;99.90
44166;DHT22;30476;53.468;9.826;2024-03-23T06:33:07;7.80;99.90
44166;DHT22;30476;53.468;9.826;2024-03-23T06:35:33;7.80;99.90
44166;DHT22;30476;53.468;9.826;2024-03-23T06:37:58;7.80;99.90
44166;DHT22;30476;53.468;9.826;2024-03-23T06:40:24;7.80;99.90
44166;DHT22;30476;53.468;9.826;2024-03-23T06:42:50;7.80;99.90
44166;DHT22;30476;53.468;9.826;2024-03-23T06:45:16;7.80;99.90
44166;DHT22;30476;53.468;9.826;2024-03-23T06:47:42;7.80;99.90
44166;DHT22;30476;53.468;9.826;2024-03-23T06:50:08;7.90;99.90
44166;DHT22;30476;53.468;9.826;2024-03-23T06:52:35;7.90;99.90
44166;DHT22;30476;53.468;9.826;2024-03-23T06:55:01;7.90;99.90
44166;DHT22;30476;53.468;9.826;2024-03-23T06:57:29;7.90;99.90
44166;DHT22;30476;53.468;9.826;2024-03-23T06:59:55;7.90;99.90
44166;DHT22;30476;53.468;9.826;2024-03-23T07:02:21;7.90;99.90
44166;DHT22;30476;53.468;9.826;2024-03-23T07:04:46;8.00;99.90
44166;DHT22;30476;53.468;9.826;2024-03-23T07:07:12;8.00;99.90
44166;DHT22;30476;53.468;9.826;2024-03-23T07:09:38;8.00;99.90
44166;DHT22;30476;53.468;9.826;2024-03-23T07:12:04;8.00;99.90
44166;DHT22;30476;53.468;9.826;2024-03-23T07:14:30;8.00;99.90
44166;DHT22;30476;53.468;9.826;2024-03-23T07:16:56;8.00;99.90
44166;DHT22;30476;53.468;9.826;2024-03-23T07:19:22;8.00;99.90
44166;DHT22;30476;53.468;9.826;2024-03-23T07:21:49;8.00;99.90
44166;DHT22;30476;53.468;9.826;2024-03-23T07:24:15;8.00;99.90
44166;DHT22;30476;53.468;9.826;2024-03-23T07:26:40;8.00;99.90
44166;DHT22;30476;53.468;9.826;2024-03-23T07:29:06;8.10;99.90
44166;DHT22;30476;53.468;9.826;2024-03-23T07:31:32;8.20;99.90
44166;DHT22;30476;53.468;9.826;2024-03-23T07:33:58;8.20;99.90
44166;DHT22;30476;53.468;9.826;2024-03-23T07:36:24;8.20;99.90
44166;DHT22;30476;53.468;9.826;2024-03-23T07:38:50;8.20;99.90
44166;DHT22;30476;53.468;9.826;2024-03-23T07:41:20;8.20;99.90
44166;DHT22;30476;53.468;9.826;2024-03-23T07:43:47;8.30;99.90
44166;DHT22;30476;53.468;9.826;2024-03-23T07:46:15;8.40;99.90
44166;DHT22;30476;53.468;9.826;2024-03-23T07:48:41;8.40;99.90
44166;DHT22;30476;53.468;9.826;2024-03-23T07:51:18;8.40;99.90
44166;DHT22;30476;53.468;9.826;2024-03-23T07:53:44;8.40;99.90
44166;DHT22;30476;53.468;9.826;2024-03-23T07:56:15;8.50;99.90
44166;DHT22;30476;53.468;9.826;2024-03-23T07:58:41;8.60;99.90
44166;DHT22;30476;53.468;9.826;2024-03-23T08:01:09;8.60;99.90
44166;DHT22;30476;53.468;9.826;2024-03-23T08:03:38;8.70;99.90
44166;DHT22;30476;53.468;9.826;2024-03-23T08:06:19;8.80;99.90
44166;DHT22;30476;53.468;9.826;2024-03-23T08:08:47;8.80;99.90
44166;DHT22;30476;53.468;9.826;2024-03-23T08:11:13;8.90;99.90
44166;DHT22;30476;53.468;9.826;2024-03-23T08:13:40;9.00;99.90
44166;DHT22;30476;53.468;9.826;2024-03-23T08:16:07;9.00;99.90
44166;DHT22;30476;53.468;9.826;2024-03-23T08:18:34;9.10;99.90
44166;DHT22;30476;53.468;9.826;2024-03-23T08:21:01;9.20;99.90
44166;DHT22;30476;53.468;9.826;2024-03-23T08:23:45;9.30;99.90
44166;DHT22;30476;53.468;9.826;2024-03-23T08:26:15;9.30;99.90
44166;DHT22;30476;53.468;9.826;2024-03-23T08:28:41;9.40;99.90
44166;DHT22;30476;53.468;9.826;2024-03-23T08:31:09;9.40;99.90
44166;DHT22;30476;53.468;9.826;2024-03-23T08:33:35;9.40;99.90
44166;DHT22;30476;53.468;9.826;2024-03-23T08:36:06;9.50;99.90
44166;DHT22;30476;53.468;9.826;2024-03-23T08:38:33;9.50;99.90
44166;DHT22;30476;53.468;9.826;2024-03-23T08:41:04;9.60;99.90
44166;DHT22;30476;53.468;9.826;2024-03-23T08:43:35;9.70;99.90
44166;DHT22;30476;53.468;9.826;2024-03-23T08:46:05;9.70;99.90
44166;DHT22;30476;53.468;9.826;2024-03-23T08:48:35;9.80;99.90
44166;DHT22;30476;53.468;9.826;2024-03-23T08:51:04;9.80;99.90
44166;DHT22;30476;53.468;9.826;2024-03-23T08:53:30;9.90;99.90
44166;DHT22;30476;53.468;9.826;2024-03-23T08:55:57;10.00;99.90
44166;DHT22;30476;53.468;9.826;2024-03-23T08:58:24;10.10;99.90
44166;DHT22;30476;53.468;9.826;2024-03-23T09:00:54;10.20;99.90
44166;DHT22;30476;53.468;9.826;2024-03-23T09:03:23;10.30;99.90
44166;DHT22;30476;53.468;9.826;2024-03-23T09:05:49;10.40;99.90
44166;DHT22;30476;53.468;9.826;2024-03-23T09:08:15;10.50;99.90
44166;DHT22;30476;53.468;9.826;2024-03-23T09:10:42;10.50;99.90
44166;DHT22;30476;53.468;9.826;2024-03-23T09:13:08;10.60;99.90
44166;DHT22;30476;53.468;9.826;2024-03-23T09:15:35;10.70;99.90
44166;DHT22;30476;53.468;9.826;2024-03-23T09:18:01;10.70;99.90
44166;DHT22;30476;53.468;9.826;2024-03-23T09:20:27;10.70;99.90
44166;DHT22;30476;53.468;9.826;2024-03-23T09:22:53;10.70;99.90
44166;DHT22;30476;53.468;9.826;2024-03-23T09:25:18;10.70;99.90
44166;DHT22;30476;53.468;9.826;2024-03-23T09:27:47;10.70;99.90
44166;DHT22;30476;53.468;9.826;2024-03-23T09:30:13;10.70;99.90
44166;DHT22;30476;53.468;9.826;2024-03-23T09:32:42;10.70;99.90
44166;DHT22;30476;53.468;9.826;2024-03-23T09:35:07;10.70;99.90
44166;DHT22;30476;53.468;9.826;2024-03-23T09:37:33;10.70;99.90
44166;DHT22;30476;53.468;9.826;2024-03-23T09:39:59;10.80;99.90
44166;DHT22;30476;53.468;9.826;2024-03-23T09:42:25;10.90;99.90
44166;DHT22;30476;53.468;9.826;2024-03-23T09:44:51;11.00;99.90
44166;DHT22;30476;53.468;9.826;2024-03-23T09:47:18;11.10;99.90
44166;DHT22;30476;53.468;9.826;2024-03-23T09:49:43;11.10;99.90
44166;DHT22;30476;53.468;9.826;2024-03-23T09:52:10;11.20;99.90
44166;DHT22;30476;53.468;9.826;2024-03-23T09:54:36;11.20;99.90
44166;DHT22;30476;53.468;9.826;2024-03-23T09:57:02;11.30;99.90
44166;DHT22;30476;53.468;9.826;2024-03-23T09:59:29;11.30;99.90
44166;DHT22;30476;53.468;9.826;2024-03-23T10:01:55;11.30;99.90
44166;DHT22;30476;53.468;9.826;2024-03-23T10:04:37;11.30;99.90
44166;DHT22;30476;53.468;9.826;2024-03-23T10:07:13;11.30;99.90
44166;DHT22;30476;53.468;9.826;2024-03-23T10:09:39;11.40;99.90
44166;DHT22;30476;53.468;9.826;2024-03-23T10:12:13;11.40;99.90
44166;DHT22;30476;53.468;9.826;2024-03-23T10:14:40;11.50;99.90
44166;DHT22;30476;53.468;9.826;2024-03-23T10:17:16;11.60;99.90
44166;DHT22;30476;53.468;9.826;2024-03-23T10:19:49;11.70;99.90
44166;DHT22;30476;53.468;9.826;2024-03-23T10:22:20;11.80;99.90
44166;DHT22;30476;53.468;9.826;2024-03-23T10:24:46;11.90;99.90
44166;DHT22;30476;53.468;9.826;2024-03-23T10:27:29;12.10;99.90
44166;DHT22;30476;53.468;9.826;2024-03-23T10:30:11;12.20;99.90
44166;DHT22;30476;53.468;9.826;2024-03-23T10:32:37;12.40;99.90
44166;DHT22;30476;53.468;9.826;2024-03-23T10:35:16;12.50;99.90
44166;DHT22;30476;53.468;9.826;2024-03-23T10:37:44;12.80;99.90
44166;DHT22;30476;53.468;9.826;2024-03-23T10:40:12;13.00;99.90
44166;DHT22;30476;53.468;9.826;2024-03-23T10:42:38;13.20;99.90
44166;DHT22;30476;53.468;9.826;2024-03-23T10:45:05;13.30;99.90
44166;DHT22;30476;53.468;9.826;2024-03-23T10:47:33;13.30;99.90
44166;DHT22;30476;53.468;9.826;2024-03-23T10:49:59;13.30;99.90
44166;DHT22;30476;53.468;9.826;2024-03-23T10:52:25;13.30;99.90
44166;DHT22;30476;53.468;9.826;2024-03-23T10:54:51;13.10;99.90
44166;DHT22;30476;53.468;9.826;2024-03-23T10:57:20;13.00;99.90
44166;DHT22;30476;53.468;9.826;2024-03-23T10:59:47;12.70;99.90
44166;DHT22;30476;53.468;9.826;2024-03-23T11:02:20;12.50;99.90
44166;DHT22;30476;53.468;9.826;2024-03-23T11:04:46;12.40;99.90
44166;DHT22;30476;53.468;9.826;2024-03-23T11:09:50;12.30;99.90
44166;DHT22;30476;53.468;9.826;2024-03-23T11:12:26;12.40;99.90
44166;DHT22;30476;53.468;9.826;2024-03-23T11:17:19;12.70;99.90
44166;DHT22;30476;53.468;9.826;2024-03-23T11:25:25;13.40;99.90
44166;DHT22;30476;53.468;9.826;2024-03-23T11:27:53;13.50;99.90
44166;DHT22;30476;53.468;9.826;2024-03-23T11:30:23;13.60;99.90
44166;DHT22;30476;53.468;9.826;2024-03-23T11:32:51;13.70;99.90
44166;DHT22;30476;53.468;9.826;2024-03-23T11:35:29;13.60;99.90
44166;DHT22;30476;53.468;9.826;2024-03-23T11:38:09;13.40;99.90
44166;DHT22;30476;53.468;9.826;2024-03-23T11:40:38;13.10;99.90
44166;DHT22;30476;53.468;9.826;2024-03-23T11:43:05;13.00;99.90
44166;DHT22;30476;53.468;9.826;2024-03-23T11:45:35;12.80;99.90
44166;DHT22;30476;53.468;9.826;2024-03-23T11:50:30;12.80;99.90
44166;DHT22;30476;53.468;9.826;2024-03-23T11:58:12;13.30;99.90
44166;DHT22;30476;53.468;9.826;2024-03-23T12:00:38;13.50;99.90
44166;DHT22;30476;53.468;9.826;2024-03-23T12:03:05;13.80;99.90
44166;DHT22;30476;53.468;9.826;2024-03-23T12:05:31;14.20;99.90
44166;DHT22;30476;53.468;9.826;2024-03-23T12:08:19;14.40;99.90
44166;DHT22;30476;53.468;9.826;2024-03-23T12:10:51;14.80;99.90
44166;DHT22;30476;53.468;9.826;2024-03-23T12:13:18;15.10;99.90
44166;DHT22;30476;53.468;9.826;2024-03-23T12:15:48;15.30;99.90
44166;DHT22;30476;53.468;9.826;2024-03-23T12:18:14;15.40;99.90
44166;DHT22;30476;53.468;9.826;2024-03-23T12:20:41;15.50;99.90
44166;DHT22;30476;53.468;9.826;2024-03-23T12:23:12;15.60;99.90
44166;DHT22;30476;53.468;9.826;2024-03-23T12:25:40;15.70;99.90
44166;DHT22;30476;53.468;9.826;2024-03-23T12:28:07;15.70;99.90
44166;DHT22;30476;53.468;9.826;2024-03-23T12:30:35;15.80;99.90
44166;DHT22;30476;53.468;9.826;2024-03-23T12:33:01;15.90;99.90
44166;DHT22;30476;53.468;9.826;2024-03-23T12:35:27;16.00;99.90
44166;DHT22;30476;53.468;9.826;2024-03-23T12:37:52;16.00;99.90
44166;DHT22;30476;53.468;9.826;2024-03-23T12:40:18;15.90;98.90
44166;DHT22;30476;53.468;9.826;2024-03-23T12:42:44;15.40;96.70
44166;DHT22;30476;53.468;9.826;2024-03-23T12:45:10;14.80;97.30
44166;DHT22;30476;53.468;9.826;2024-03-23T12:47:35;14.20;97.80
44166;DHT22;30476;53.468;9.826;2024-03-23T12:50:01;13.80;98.70
44166;DHT22;30476;53.468;9.826;2024-03-23T12:52:27;13.40;99.10
44166;DHT22;30476;53.468;9.826;2024-03-23T12:54:57;13.00;99.90
44166;DHT22;30476;53.468;9.826;2024-03-23T12:57:24;12.80;99.90
44166;DHT22;30476;53.468;9.826;2024-03-23T12:59:51;12.40;99.90
44166;DHT22;30476;53.468;9.826;2024-03-23T13:02:22;12.10;99.90
44166;DHT22;30476;53.468;9.826;2024-03-23T13:04:54;11.90;99.90
44166;DHT22;30476;53.468;9.826;2024-03-23T13:07:21;11.70;99.90
44166;DHT22;30476;53.468;9.826;2024-03-23T13:09:50;11.60;99.90
44166;DHT22;30476;53.468;9.826;2024-03-23T13:12:15;11.50;99.90
44166;DHT22;30476;53.468;9.826;2024-03-23T13:14:42;11.40;99.90
44166;DHT22;30476;53.468;9.826;2024-03-23T13:17:08;11.30;99.90
44166;DHT22;30476;53.468;9.826;2024-03-23T13:19:34;11.10;99.90
44166;DHT22;30476;53.468;9.826;2024-03-23T13:22:00;11.00;99.90
44166;DHT22;30476;53.468;9.826;2024-03-23T13:24:29;10.90;99.90
44166;DHT22;30476;53.468;9.826;2024-03-23T13:26:56;10.80;99.90
44166;DHT22;30476;53.468;9.826;2024-03-23T13:29:23;10.70;99.90
44166;DHT22;30476;53.468;9.826;2024-03-23T13:31:50;10.60;99.90
44166;DHT22;30476;53.468;9.826;2024-03-23T13:34:16;10.60;99.90
44166;DHT22;30476;53.468;9.826;2024-03-23T13:36:46;10.60;99.90
44166;DHT22;30476;53.468;9.826;2024-03-23T13:39:13;10.60;99.90
44166;DHT22;30476;53.468;9.826;2024-03-23T13:41:45;10.60;99.90
44166;DHT22;30476;53.468;9.826;2024-03-23T13:44:12;10.60;99.90
44166;DHT22;30476;53.468;9.826;2024-03-23T13:46:39;10.50;99.90
44166;DHT22;30476;53.468;9.826;2024-03-23T13:49:06;10.40;99.90
44166;DHT22;30476;53.468;9.826;2024-03-23T13:51:32;10.40;99.90
44166;DHT22;30476;53.468;9.826;2024-03-23T13:53:58;10.50;99.90
44166;DHT22;30476;53.468;9.826;2024-03-23T13:56:27;10.50;99.90
44166;DHT22;30476;53.468;9.826;2024-03-23T13:58:55;10.50;99.90
44166;DHT22;30476;53.468;9.826;2024-03-23T14:01:21;10.60;99.90
44166;DHT22;30476;53.468;9.826;2024-03-23T14:03:47;10.70;99.90
44166;DHT22;30476;53.468;9.826;2024-03-23T14:06:13;10.90;99.90
44166;DHT22;30476;53.468;9.826;2024-03-23T14:08:39;11.00;99.90
44166;DHT22;30476;53.468;9.826;2024-03-23T14:11:09;11.20;99.90
44166;DHT22;30476;53.468;9.826;2024-03-23T14:13:35;11.20;99.90
44166;DHT22;30476;53.468;9.826;2024-03-23T14:16:01;11.20;99.90
44166;DHT22;30476;53.468;9.826;2024-03-23T14:18:27;11.30;99.90
44166;DHT22;30476;53.468;9.826;2024-03-23T14:20:57;11.40;99.90
44166;DHT22;30476;53.468;9.826;2024-03-23T14:23:27;11.50;99.90
44166;DHT22;30476;53.468;9.826;2024-03-23T14:25:55;11.70;99.90
44166;DHT22;30476;53.468;9.826;2024-03-23T14:28:22;11.80;99.90
44166;DHT22;30476;53.468;9.826;2024-03-23T14:30:52;11.90;99.90
44166;DHT22;30476;53.468;9.826;2024-03-23T14:33:20;12.00;99.90
44166;DHT22;30476;53.468;9.826;2024-03-23T14:35:56;12.00;99.90
44166;DHT22;30476;53.468;9.826;2024-03-23T14:38:25;12.10;99.90
44166;DHT22;30476;53.468;9.826;2024-03-23T14:40:51;12.10;99.90
44166;DHT22;30476;53.468;9.826;2024-03-23T14:43:19;12.10;99.90
44166;DHT22;30476;53.468;9.826;2024-03-23T14:48:34;12.00;99.90
44166;DHT22;30476;53.468;9.826;2024-03-23T14:51:01;11.90;99.90
44166;DHT22;30476;53.468;9.826;2024-03-23T14:53:27;11.90;99.90
44166;DHT22;30476;53.468;9.826;2024-03-23T14:55:56;11.80;99.90
44166;DHT22;30476;53.468;9.826;2024-03-23T14:58:21;11.80;99.90
44166;DHT22;30476;53.468;9.826;2024-03-23T15:00:49;11.70;99.90
44166;DHT22;30476;53.468;9.826;2024-03-23T15:03:15;11.70;99.90
44166;DHT22;30476;53.468;9.826;2024-03-23T15:05:41;11.60;99.90
44166;DHT22;30476;53.468;9.826;2024-03-23T15:08:07;11.60;99.90
44166;DHT22;30476;53.468;9.826;2024-03-23T15:10:34;11.50;99.90
44166;DHT22;30476;53.468;9.826;2024-03-23T15:12:59;11.30;99.90
44166;DHT22;30476;53.468;9.826;2024-03-23T15:15:25;11.10;99.90
44166;DHT22;30476;53.468;9.826;2024-03-23T15:17:52;10.90;99.90
44166;DHT22;30476;53.468;9.826;2024-03-23T15:20:17;10.80;99.90
44166;DHT22;30476;53.468;9.826;2024-03-23T15:22:43;10.80;99.90
44166;DHT22;30476;53.468;9.826;2024-03-23T15:25:09;10.70;99.90
44166;DHT22;30476;53.468;9.826;2024-03-23T15:27:35;10.60;99.90
44166;DHT22;30476;53.468;9.826;2024-03-23T15:30:01;10.60;99.90
44166;DHT22;30476;53.468;9.826;2024-03-23T15:32:27;10.60;99.90
44166;DHT22;30476;53.468;9.826;2024-03-23T15:34:52;10.60;99.90
44166;DHT22;30476;53.468;9.826;2024-03-23T15:37:18;10.60;99.90
44166;DHT22;30476;53.468;9.826;2024-03-23T15:39:44;10.60;99.90
44166;DHT22;30476;53.468;9.826;2024-03-23T15:42:09;10.50;99.90
44166;DHT22;30476;53.468;9.826;2024-03-23T15:44:36;10.50;99.90
44166;DHT22;30476;53.468;9.826;2024-03-23T15:47:01;10.50;99.90
44166;DHT22;30476;53.468;9.826;2024-03-23T15:49:28;10.40;99.90
44166;DHT22;30476;53.468;9.826;2024-03-23T15:51:53;10.40;99.90
44166;DHT22;30476;53.468;9.826;2024-03-23T15:54:19;10.30;99.90
44166;DHT22;30476;53.468;9.826;2024-03-23T15:56:47;10.30;99.90
44166;DHT22;30476;53.468;9.826;2024-03-23T15:59:13;10.20;99.90
44166;DHT22;30476;53.468;9.826;2024-03-23T16:01:38;10.20;99.90
44166;DHT22;30476;53.468;9.826;2024-03-23T16:04:04;10.10;99.90
44166;DHT22;30476;53.468;9.826;2024-03-23T16:06:30;10.00;99.90
44166;DHT22;30476;53.468;9.826;2024-03-23T16:08:56;9.90;99.90
44166;DHT22;30476;53.468;9.826;2024-03-23T16:11:22;9.80;99.90
44166;DHT22;30476;53.468;9.826;2024-03-23T16:13:48;9.70;99.90
44166;DHT22;30476;53.468;9.826;2024-03-23T16:16:14;9.60;99.90
44166;DHT22;30476;53.468;9.826;2024-03-23T16:18:42;9.60;99.90
44166;DHT22;30476;53.468;9.826;2024-03-23T16:21:09;9.50;99.90
44166;DHT22;30476;53.468;9.826;2024-03-23T16:23:36;9.40;99.90
44166;DHT22;30476;53.468;9.826;2024-03-23T16:26:07;9.40;99.90
44166;DHT22;30476;53.468;9.826;2024-03-23T16:28:34;9.30;99.90
44166;DHT22;30476;53.468;9.826;2024-03-23T16:33:30;9.30;99.90
44166;DHT22;30476;53.468;9.826;2024-03-23T16:38:22;9.30;99.90
44166;DHT22;30476;53.468;9.826;2024-03-23T16:40:55;9.30;99.90
44166;DHT22;30476;53.468;9.826;2024-03-23T16:43:21;9.30;99.90
44166;DHT22;30476;53.468;9.826;2024-03-23T16:48:22;9.20;99.90
44166;DHT22;30476;53.468;9.826;2024-03-23T16:50:48;9.20;99.90
44166;DHT22;30476;53.468;9.826;2024-03-23T16:53:14;9.20;99.90
44166;DHT22;30476;53.468;9.826;2024-03-23T16:55:40;9.20;99.90
44166;DHT22;30476;53.468;9.826;2024-03-23T16:58:06;9.20;99.90
44166;DHT22;30476;53.468;9.826;2024-03-23T17:00:31;9.10;99.90
44166;DHT22;30476;53.468;9.826;2024-03-23T17:02:57;9.10;99.90